Time;durP1;ratioP1;P1;durP2;ratioP2;P2;SDS_P1;SDS_P2;PMS_P1;PMS_P2;Temp;Humidity;BMP_temperature;BMP_pressure;BME280_temperature;BME280_humidity;BME280_pressure;Samples;Min_cycle;Max_cycle;Signal;HPM_P1;HPM_P2
2022/07/16 00:02:50;;;;;;;7.43;3.27;;;17.50;99.90;;;;;;5093974;28;20044;-74
2022/07/16 00:05:16;;;;;;;7.30;2.40;;;17.50;99.90;;;;;;5093930;28;20048;-71
2022/07/16 00:07:42;;;;;;;6.07;2.50;;;17.60;99.90;;;;;;5092940;28;20052;-71
2022/07/16 00:10:08;;;;;;;6.73;3.17;;;17.60;99.90;;;;;;5092731;28;20044;-71
2022/07/16 00:12:34;;;;;;;6.60;2.60;;;17.60;99.90;;;;;;5093768;28;20051;-71
2022/07/16 00:15:00;;;;;;;5.47;2.83;;;17.60;99.90;;;;;;5092635;28;20048;-71
2022/07/16 00:17:25;;;;;;;5.17;2.33;;;17.70;99.90;;;;;;5092832;28;20048;-71
2022/07/16 00:19:51;;;;;;;5.17;2.47;;;17.70;99.90;;;;;;5094026;28;20100;-71
2022/07/16 00:22:17;;;;;;;6.70;2.70;;;17.70;99.90;;;;;;5094101;28;20408;-71
2022/07/16 00:24:43;;;;;;;5.77;2.53;;;17.70;99.90;;;;;;5093155;28;20044;-71
2022/07/16 00:27:08;;;;;;;6.23;2.93;;;17.70;99.90;;;;;;5093625;28;20044;-71
2022/07/16 00:29:34;;;;;;;6.07;2.70;;;17.70;99.90;;;;;;5093561;28;20055;-71
2022/07/16 00:32:00;;;;;;;12.37;3.10;;;17.70;99.90;;;;;;5093590;28;20040;-72
2022/07/16 00:34:25;;;;;;;5.47;2.83;;;17.70;99.90;;;;;;5093313;28;20043;-71
2022/07/16 00:36:51;;;;;;;7.70;3.60;;;17.70;99.90;;;;;;5093759;28;20097;-70
2022/07/16 00:39:18;;;;;;;7.73;3.50;;;17.70;99.90;;;;;;5093573;28;20043;-72
2022/07/16 00:41:46;;;;;;;8.50;3.73;;;17.70;99.90;;;;;;5093105;28;20055;-72
2022/07/16 00:44:17;;;;;;;6.87;2.77;;;17.70;99.90;;;;;;5093899;28;20051;-71
2022/07/16 00:46:44;;;;;;;8.67;3.07;;;17.60;99.90;;;;;;5093493;28;20044;-71
2022/07/16 00:49:12;;;;;;;8.57;3.27;;;17.50;99.90;;;;;;5093475;28;20506;-70
2022/07/16 00:51:46;;;;;;;7.70;3.23;;;17.50;99.90;;;;;;5092413;28;20055;-71
2022/07/16 00:54:13;;;;;;;9.70;2.88;;;17.50;99.90;;;;;;5093429;28;20047;-72
2022/07/16 00:56:38;;;;;;;6.53;2.57;;;17.40;99.90;;;;;;5093925;28;20040;-72
2022/07/16 00:59:05;;;;;;;9.37;2.37;;;17.30;99.90;;;;;;5093293;28;20054;-71
2022/07/16 01:01:31;;;;;;;6.20;2.27;;;17.30;99.90;;;;;;5093311;28;20145;-71
2022/07/16 01:03:57;;;;;;;6.93;2.40;;;17.30;99.90;;;;;;5093237;28;20483;-73
2022/07/16 01:06:23;;;;;;;6.30;2.43;;;17.30;99.90;;;;;;5092101;28;20127;-71
2022/07/16 01:08:49;;;;;;;5.40;2.10;;;17.30;99.90;;;;;;5093747;28;20154;-73
2022/07/16 01:11:20;;;;;;;8.07;2.10;;;17.20;99.90;;;;;;5093387;28;20051;-73
2022/07/16 01:13:47;;;;;;;5.87;1.80;;;17.20;99.90;;;;;;5076314;28;20048;-74
2022/07/16 01:16:13;;;;;;;8.30;2.00;;;17.20;99.90;;;;;;5093153;28;20054;-75
2022/07/16 01:18:41;;;;;;;5.30;1.80;;;17.20;99.90;;;;;;5093200;28;20051;-74
2022/07/16 01:21:07;;;;;;;7.13;1.80;;;17.20;99.90;;;;;;5093089;28;20036;-72
2022/07/16 01:23:33;;;;;;;5.97;1.90;;;17.20;99.90;;;;;;5093308;28;20055;-70
2022/07/16 01:25:59;;;;;;;8.90;2.17;;;17.20;99.90;;;;;;5093007;28;20048;-74
2022/07/16 01:28:25;;;;;;;8.80;1.90;;;17.30;99.90;;;;;;5093110;28;20036;-72
2022/07/16 01:30:50;;;;;;;7.10;2.17;;;17.20;99.90;;;;;;5093040;28;20044;-72
2022/07/16 01:33:28;;;;;;;7.17;2.03;;;17.30;99.90;;;;;;5092210;28;20056;-72
2022/07/16 01:35:57;;;;;;;10.50;2.10;;;17.30;99.90;;;;;;5127007;27;20135;-72
2022/07/16 01:38:23;;;;;;;7.70;1.97;;;17.20;99.90;;;;;;5095678;28;20777;-72
2022/07/16 01:40:49;;;;;;;9.67;2.00;;;17.20;99.90;;;;;;5096390;28;20067;-72
2022/07/16 01:43:17;;;;;;;6.47;1.90;;;17.20;99.90;;;;;;5096537;28;20056;-72
2022/07/16 01:45:43;;;;;;;8.57;1.90;;;17.20;99.90;;;;;;5096622;28;20052;-72
2022/07/16 01:48:11;;;;;;;7.00;1.70;;;17.10;99.90;;;;;;5096521;28;20255;-72
2022/07/16 01:50:36;;;;;;;4.77;1.30;;;17.10;99.90;;;;;;5095579;28;20052;-72
2022/07/16 01:53:03;;;;;;;6.97;2.13;;;17.10;99.90;;;;;;5097053;28;20070;-72
2022/07/16 01:55:29;;;;;;;6.53;1.63;;;17.10;99.90;;;;;;5096412;28;20083;-72
2022/07/16 01:57:55;;;;;;;6.60;2.13;;;17.10;99.90;;;;;;5096369;28;20318;-72
2022/07/16 02:00:22;;;;;;;6.97;2.07;;;17.10;99.90;;;;;;5095652;28;20051;-72
2022/07/16 02:02:47;;;;;;;5.67;1.70;;;17.10;99.90;;;;;;5095265;28;20040;-72
2022/07/16 02:05:13;;;;;;;3.93;1.40;;;17.00;99.90;;;;;;5096714;28;20097;-72
2022/07/16 02:07:39;;;;;;;5.87;1.67;;;17.00;99.90;;;;;;5096270;28;20075;-72
2022/07/16 02:10:06;;;;;;;6.90;1.57;;;17.00;99.90;;;;;;5096185;28;20044;-72
2022/07/16 02:12:31;;;;;;;8.70;1.60;;;17.00;99.90;;;;;;5096573;28;20317;-72
2022/07/16 02:14:57;;;;;;;6.00;1.60;;;17.00;99.90;;;;;;5096069;28;20083;-72
2022/07/16 02:17:24;;;;;;;6.83;1.50;;;17.00;99.90;;;;;;5096071;28;20052;-72
2022/07/16 02:19:49;;;;;;;5.13;1.47;;;17.00;99.90;;;;;;5095997;28;20093;-72
2022/07/16 02:22:15;;;;;;;9.17;2.20;;;17.00;99.90;;;;;;5095768;28;20128;-72
2022/07/16 02:24:41;;;;;;;4.77;1.80;;;17.00;99.90;;;;;;5095894;28;20040;-72
2022/07/16 02:27:07;;;;;;;6.10;2.03;;;17.00;99.90;;;;;;5096352;28;20388;-73
2022/07/16 02:29:33;;;;;;;7.27;1.60;;;16.90;99.90;;;;;;5094847;28;20283;-72
2022/07/16 02:31:58;;;;;;;8.20;1.67;;;16.90;99.90;;;;;;5094574;28;20355;-72
2022/07/16 02:34:25;;;;;;;5.53;1.77;;;16.90;99.90;;;;;;5095702;28;20051;-72
2022/07/16 02:36:51;;;;;;;6.40;1.83;;;16.90;99.90;;;;;;5095731;28;20494;-72
2022/07/16 02:39:16;;;;;;;4.93;1.70;;;16.90;99.90;;;;;;5095557;28;20067;-72
2022/07/16 02:41:42;;;;;;;5.47;1.90;;;16.80;99.90;;;;;;5094130;28;20048;-72
2022/07/16 02:44:08;;;;;;;4.73;1.60;;;16.70;99.90;;;;;;5096221;28;20048;-73
2022/07/16 02:46:33;;;;;;;6.27;1.90;;;16.80;99.90;;;;;;5094666;28;20476;-72
2022/07/16 02:48:59;;;;;;;6.50;1.67;;;16.70;99.90;;;;;;5094464;28;20127;-72
2022/07/16 02:51:25;;;;;;;5.93;1.63;;;16.70;99.90;;;;;;5095841;28;20078;-72
2022/07/16 02:53:51;;;;;;;4.10;1.50;;;16.60;99.90;;;;;;5094613;28;20052;-72
2022/07/16 02:56:16;;;;;;;8.07;2.20;;;16.60;99.90;;;;;;5094278;28;20051;-72
2022/07/16 02:58:42;;;;;;;6.03;2.00;;;16.50;99.90;;;;;;5095258;28;20047;-72
2022/07/16 03:01:08;;;;;;;9.33;2.00;;;16.50;99.90;;;;;;5095719;28;20040;-74
2022/07/16 03:03:34;;;;;;;5.33;1.83;;;16.50;99.90;;;;;;5094137;28;20044;-72
2022/07/16 03:06:00;;;;;;;7.13;1.80;;;16.40;99.90;;;;;;5095120;28;20052;-72
2022/07/16 03:08:25;;;;;;;6.27;2.20;;;16.40;99.90;;;;;;5095245;28;20157;-72
2022/07/16 03:10:51;;;;;;;6.83;1.80;;;16.40;99.90;;;;;;5093956;28;20055;-72
2022/07/16 03:13:17;;;;;;;6.83;1.87;;;16.30;99.90;;;;;;5093942;28;20055;-72
2022/07/16 03:15:42;;;;;;;9.33;2.30;;;16.30;99.90;;;;;;5094926;28;20158;-71
2022/07/16 03:18:08;;;;;;;10.47;2.53;;;16.20;99.90;;;;;;5094795;28;20044;-71
2022/07/16 03:20:34;;;;;;;6.30;2.10;;;16.10;99.90;;;;;;5094062;28;20131;-71
2022/07/16 03:22:59;;;;;;;7.67;1.93;;;16.10;99.90;;;;;;5093610;28;20369;-71
2022/07/16 03:25:25;;;;;;;7.50;2.00;;;16.10;99.90;;;;;;5094699;28;20047;-71
2022/07/16 03:27:51;;;;;;;9.43;2.83;;;16.10;99.90;;;;;;5094333;28;20050;-71
2022/07/16 03:30:17;;;;;;;8.23;2.00;;;16.10;99.90;;;;;;5094863;28;20087;-72
2022/07/16 03:32:43;;;;;;;11.00;2.30;;;16.10;99.90;;;;;;5094550;28;20399;-72
2022/07/16 03:35:10;;;;;;;8.13;2.30;;;16.10;99.90;;;;;;5093541;28;20048;-71
2022/07/16 03:38:57;;;;;;;8.30;2.07;;;16.10;99.90;;;;;;5094461;28;20385;-71
2022/07/16 03:40:23;;;;;;;7.73;2.43;;;16.10;99.90;;;;;;5094015;28;20282;-71
2022/07/16 03:42:49;;;;;;;6.47;1.80;;;16.00;99.90;;;;;;5093322;28;20310;-71
2022/07/16 03:45:16;;;;;;;8.43;2.00;;;16.00;99.90;;;;;;5094364;28;20347;-71
2022/07/16 03:47:42;;;;;;;9.13;2.00;;;15.90;99.90;;;;;;5094831;28;20282;-71
2022/07/16 03:50:07;;;;;;;8.60;1.80;;;15.90;99.90;;;;;;5094273;28;20040;-71
2022/07/16 03:52:33;;;;;;;7.33;2.00;;;15.90;99.90;;;;;;5093871;28;20060;-71
2022/07/16 03:54:59;;;;;;;6.53;2.13;;;15.80;99.90;;;;;;5094728;28;20048;-71
2022/07/16 03:57:24;;;;;;;9.03;2.00;;;15.80;99.90;;;;;;5094660;28;20489;-71
2022/07/16 03:59:50;;;;;;;9.13;2.30;;;15.80;99.90;;;;;;5094161;28;20070;-71
2022/07/16 04:02:16;;;;;;;9.57;2.10;;;15.80;99.90;;;;;;5093963;28;20054;-72
2022/07/16 04:04:41;;;;;;;7.33;1.77;;;15.80;99.90;;;;;;5093966;28;20131;-71
2022/07/16 04:07:07;;;;;;;7.83;1.80;;;15.80;99.90;;;;;;5094046;28;20052;-71
2022/07/16 04:09:33;;;;;;;10.03;2.47;;;15.80;99.90;;;;;;5092912;28;20083;-71
2022/07/16 04:11:58;;;;;;;9.60;1.90;;;15.80;99.90;;;;;;5094129;28;20132;-71
2022/07/16 04:14:25;;;;;;;8.93;1.90;;;15.90;99.90;;;;;;5093848;28;20073;-71
2022/07/16 04:16:51;;;;;;;5.77;1.50;;;16.00;99.90;;;;;;5093840;28;20044;-71
2022/07/16 04:19:17;;;;;;;9.17;1.77;;;16.00;99.90;;;;;;5093780;28;20795;-73
2022/07/16 04:21:43;;;;;;;9.40;1.93;;;16.00;99.90;;;;;;5092471;28;20298;-71
2022/07/16 04:24:09;;;;;;;7.77;1.90;;;15.90;99.90;;;;;;5093657;28;20301;-71
2022/07/16 04:26:34;;;;;;;9.50;1.87;;;15.90;99.90;;;;;;5093919;28;20565;-72
2022/07/16 04:29:00;;;;;;;8.23;2.53;;;15.90;99.90;;;;;;5093647;28;20036;-71
2022/07/16 04:31:26;;;;;;;7.00;1.70;;;15.90;99.90;;;;;;5093620;28;20504;-72
2022/07/16 04:33:51;;;;;;;7.13;1.63;;;15.90;99.90;;;;;;5092358;28;20048;-72
2022/07/16 04:36:17;;;;;;;10.57;1.80;;;15.90;99.90;;;;;;5094156;28;20044;-72
2022/07/16 04:38:43;;;;;;;9.03;2.00;;;15.90;99.90;;;;;;5093313;28;20139;-72
2022/07/16 04:41:09;;;;;;;14.20;2.10;;;15.80;99.90;;;;;;5093427;28;20143;-72
2022/07/16 04:43:34;;;;;;;6.37;1.77;;;15.80;99.90;;;;;;5093764;28;20058;-72
2022/07/16 04:46:00;;;;;;;7.23;1.90;;;15.90;99.90;;;;;;5092332;28;20047;-72
2022/07/16 04:48:26;;;;;;;8.13;2.20;;;15.90;99.90;;;;;;5093264;28;20052;-72
2022/07/16 04:50:51;;;;;;;8.30;1.63;;;16.00;99.90;;;;;;5093311;28;20070;-72
2022/07/16 04:53:17;;;;;;;8.67;2.03;;;16.10;99.90;;;;;;5092021;28;20048;-71
2022/07/16 04:55:43;;;;;;;10.90;1.53;;;16.10;99.90;;;;;;5093162;28;20055;-71
2022/07/16 04:58:08;;;;;;;6.77;1.70;;;16.10;99.90;;;;;;5093313;28;20048;-71
2022/07/16 05:00:35;;;;;;;11.30;2.03;;;16.20;99.90;;;;;;5093544;28;20436;-71
2022/07/16 05:03:00;;;;;;;8.10;2.00;;;16.40;99.90;;;;;;5094028;28;20368;-71
2022/07/16 05:05:32;;;;;;;7.43;1.77;;;16.50;99.90;;;;;;5093777;28;20278;-71
2022/07/16 05:07:59;;;;;;;9.53;1.57;;;16.60;99.90;;;;;;5093681;28;20044;-72
2022/07/16 05:10:25;;;;;;;8.83;1.90;;;16.60;99.90;;;;;;5093126;28;20040;-72
2022/07/16 05:12:52;;;;;;;7.57;1.63;;;16.60;99.90;;;;;;5097485;28;20044;-72
2022/07/16 05:15:18;;;;;;;8.37;2.20;;;16.70;99.90;;;;;;5097709;28;20599;-72
2022/07/16 05:17:44;;;;;;;6.40;1.70;;;16.70;99.90;;;;;;5097044;28;20282;-72
2022/07/16 05:20:10;;;;;;;9.47;2.00;;;16.80;99.90;;;;;;5096470;28;20285;-72
2022/07/16 05:22:35;;;;;;;6.83;1.80;;;16.90;99.90;;;;;;5079049;28;20052;-72
2022/07/16 05:25:02;;;;;;;7.63;1.90;;;17.00;99.90;;;;;;5097498;28;20063;-71
2022/07/16 05:27:28;;;;;;;9.83;1.97;;;17.00;99.90;;;;;;5097563;28;20051;-71
2022/07/16 05:29:54;;;;;;;7.10;1.97;;;17.10;99.90;;;;;;5095846;28;20056;-72
2022/07/16 05:32:20;;;;;;;7.23;1.80;;;17.20;99.90;;;;;;5078881;28;20079;-71
2022/07/16 05:34:45;;;;;;;9.27;1.90;;;17.30;99.90;;;;;;5096656;28;20048;-71
2022/07/16 05:37:11;;;;;;;6.93;1.70;;;17.50;99.90;;;;;;5096717;28;20044;-72
2022/07/16 05:39:37;;;;;;;10.30;1.93;;;17.50;99.90;;;;;;5096912;28;20054;-72
2022/07/16 05:42:03;;;;;;;5.47;1.37;;;17.70;99.90;;;;;;5096806;28;20056;-72
2022/07/16 05:44:29;;;;;;;12.70;1.77;;;17.70;99.90;;;;;;5096529;28;20046;-72
2022/07/16 05:46:54;;;;;;;7.77;1.80;;;17.80;99.90;;;;;;5078438;28;20047;-72
2022/07/16 05:49:20;;;;;;;11.60;1.80;;;17.70;99.90;;;;;;5096586;28;20040;-72
2022/07/16 05:51:46;;;;;;;6.33;1.37;;;17.70;99.90;;;;;;5097004;28;20177;-72
2022/07/16 05:54:12;;;;;;;5.77;1.30;;;17.70;99.90;;;;;;5096391;28;20112;-72
2022/07/16 05:56:38;;;;;;;6.07;1.90;;;17.70;99.90;;;;;;5095357;28;20055;-72
2022/07/16 05:59:03;;;;;;;7.40;1.80;;;17.70;99.90;;;;;;5096585;28;20067;-72
2022/07/16 06:01:30;;;;;;;9.17;1.70;;;17.80;99.90;;;;;;5096189;28;20133;-72
2022/07/16 06:03:55;;;;;;;8.83;1.87;;;17.70;99.90;;;;;;5094858;28;20086;-72
2022/07/16 06:06:21;;;;;;;9.80;2.00;;;17.70;99.90;;;;;;5094829;28;20040;-72
2022/07/16 06:08:47;;;;;;;6.83;1.63;;;17.70;99.90;;;;;;5095137;28;20119;-72
2022/07/16 06:11:12;;;;;;;7.43;1.53;;;17.70;99.90;;;;;;5096608;28;20055;-72
2022/07/16 06:13:38;;;;;;;7.03;1.60;;;17.70;99.90;;;;;;5095985;28;20044;-72
2022/07/16 06:16:07;;;;;;;6.10;1.90;;;17.60;99.90;;;;;;5094796;28;20042;-72
2022/07/16 06:18:35;;;;;;;5.87;1.77;;;17.60;99.90;;;;;;5096119;28;20403;-72
2022/07/16 06:21:02;;;;;;;10.00;2.33;;;17.60;99.90;;;;;;5094852;28;20044;-71
2022/07/16 06:23:27;;;;;;;7.40;1.60;;;17.70;99.90;;;;;;5094295;28;20455;-72
2022/07/16 06:25:53;;;;;;;6.63;1.80;;;18.10;99.90;;;;;;5095761;28;20135;-72
2022/07/16 06:28:19;;;;;;;7.73;1.80;;;18.70;99.90;;;;;;5094975;28;20059;-72
2022/07/16 06:30:45;;;;;;;5.83;1.50;;;;;;;;;;5096509;28;20456;-74
2022/07/16 06:33:11;;;;;;;9.43;1.80;;;;;;;;;;5095972;28;20415;-71
2022/07/16 06:35:37;;;;;;;6.73;1.70;;;;;;;;;;5096438;28;20400;-72
2022/07/16 06:38:03;;;;;;;6.30;1.77;;;23.10;88.40;;;;;;5094442;28;20044;-72
2022/07/16 06:40:30;;;;;;;8.43;1.60;;;22.70;80.00;;;;;;5095733;28;20130;-72
2022/07/16 06:42:56;;;;;;;6.20;1.60;;;22.80;72.50;;;;;;5095394;28;20150;-73
2022/07/16 06:45:22;;;;;;;6.33;1.97;;;22.80;64.90;;;;;;5094078;28;20052;-73
2022/07/16 06:47:48;;;;;;;6.43;1.60;;;22.70;67.80;;;;;;5095390;28;20047;-71
2022/07/16 06:50:14;;;;;;;8.47;1.80;;;22.90;65.30;;;;;;5095998;28;20044;-71
2022/07/16 06:52:40;;;;;;;7.80;1.70;;;22.60;63.30;;;;;;5094860;28;20040;-71
2022/07/16 06:55:06;;;;;;;6.37;1.87;;;22.40;63.30;;;;;;5095194;28;20164;-71
2022/07/16 06:57:33;;;;;;;7.07;1.40;;;22.00;61.20;;;;;;5094032;28;20047;-71
2022/07/16 06:59:59;;;;;;;5.87;1.70;;;21.50;60.00;;;;;;5095157;28;20101;-71
2022/07/16 07:02:25;;;;;;;6.03;1.60;;;22.00;61.00;;;;;;5095022;28;20044;-71
2022/07/16 07:04:50;;;;;;;5.87;1.80;;;23.90;53.60;;;;;;5094111;28;20143;-71
2022/07/16 07:07:17;;;;;;;5.77;1.90;;;;;;;;;;5095052;28;20083;-71
2022/07/16 07:09:43;;;;;;;8.20;1.70;;;;;;;;;;5095482;28;20074;-71
2022/07/16 07:12:09;;;;;;;6.70;1.60;;;;;;;;;;5095411;28;20062;-71
2022/07/16 07:14:35;;;;;;;4.87;1.50;;;;;;;;;;5094788;28;20387;-74
2022/07/16 07:17:01;;;;;;;4.00;1.47;;;;;;;;;;5095075;28;20104;-71
2022/07/16 07:19:28;;;;;;;7.93;1.83;;;29.00;65.90;;;;;;5094655;28;20564;-71
2022/07/16 07:21:54;;;;;;;3.80;1.20;;;29.50;55.90;;;;;;5094637;28;20048;-72
2022/07/16 07:24:19;;;;;;;7.17;1.50;;;29.60;43.90;;;;;;5094390;28;20108;-72
2022/07/16 07:26:45;;;;;;;6.57;1.23;;;29.30;41.20;;;;;;5093400;28;20036;-72
2022/07/16 07:29:11;;;;;;;3.47;1.40;;;;;;;;;;5094645;28;20085;-72
2022/07/16 07:31:37;;;;;;;6.43;1.67;;;;;;;;;;5095245;28;20067;-73
2022/07/16 07:34:03;;;;;;;4.55;1.58;;;29.50;38.20;;;;;;5093619;28;20048;-72
2022/07/16 07:36:29;;;;;;;4.20;1.60;;;29.30;39.10;;;;;;5093399;28;20040;-71
2022/07/16 07:38:54;;;;;;;4.70;1.48;;;29.70;38.70;;;;;;5094131;28;20155;-72
2022/07/16 07:41:20;;;;;;;4.90;1.70;;;;;;;;;;5094010;28;20059;-72
2022/07/16 07:43:47;;;;;;;8.80;1.40;;;;;;;;;;5094269;28;20510;-72
2022/07/16 07:46:13;;;;;;;6.75;1.83;;;;;;;;;;5094087;28;20055;-71
2022/07/16 07:48:38;;;;;;;4.25;1.30;;;31.70;33.00;;;;;;5094238;28;20087;-71
2022/07/16 07:51:05;;;;;;;8.40;1.92;;;;;;;;;;5093931;28;20085;-70
2022/07/16 07:53:31;;;;;;;4.72;1.63;;;;;;;;;;5094149;28;20134;-70
2022/07/16 07:55:56;;;;;;;3.88;1.70;;;33.10;62.70;;;;;;5094609;28;20047;-70
2022/07/16 07:58:22;;;;;;;4.05;1.77;;;32.90;62.50;;;;;;5094510;28;20044;-70
2022/07/16 08:00:48;;;;;;;7.07;1.92;;;32.60;33.10;;;;;;5093843;28;20044;-69
2022/07/16 08:03:14;;;;;;;4.57;1.65;;;;;;;;;;5093790;28;20044;-69
2022/07/16 08:05:40;;;;;;;6.28;1.90;;;31.10;33.10;;;;;;5093896;28;20044;-71
2022/07/16 08:08:05;;;;;;;6.10;1.80;;;29.60;34.90;;;;;;5093935;28;20044;-69
2022/07/16 08:10:31;;;;;;;5.22;1.70;;;28.20;35.90;;;;;;5093912;28;20040;-71
2022/07/16 08:12:57;;;;;;;5.57;1.80;;;26.50;39.30;;;;;;5094040;28;20051;-69
2022/07/16 08:15:22;;;;;;;5.47;1.38;;;26.20;39.00;;;;;;5092960;28;20132;-69
2022/07/16 08:17:48;;;;;;;12.43;2.22;;;25.60;39.70;;;;;;5093676;28;20130;-72
2022/07/16 08:20:14;;;;;;;7.47;1.95;;;;;;;;;;5093491;28;20079;-68
2022/07/16 08:22:41;;;;;;;6.65;1.75;;;24.50;42.30;;;;;;5093657;28;20048;-71
2022/07/16 08:27:51;;;;;;;7.50;1.70;;;24.90;45.40;;;;;;5093608;28;20052;-71
2022/07/16 08:30:18;;;;;;;7.47;1.47;;;;;;;;;;5093662;28;20051;-71
2022/07/16 08:32:44;;;;;;;7.03;1.50;;;;;;;;;;5094009;28;20087;-71
2022/07/16 08:35:09;;;;;;;6.67;1.60;;;25.70;42.50;;;;;;5093490;28;20404;-69
2022/07/16 08:37:43;;;;;;;6.30;1.80;;;25.20;43.50;;;;;;5093317;28;20044;-69
2022/07/16 08:40:12;;;;;;;7.15;1.83;;;;;;;;;;5093203;28;20040;-70
2022/07/16 08:42:38;;;;;;;6.27;1.90;;;25.20;43.90;;;;;;5093465;28;20091;-70
2022/07/16 08:45:07;;;;;;;6.57;1.90;;;25.60;44.40;;;;;;5095399;28;20105;-70
2022/07/16 08:47:33;;;;;;;12.27;2.50;;;25.80;43.90;;;;;;5099087;28;20056;-71
2022/07/16 08:50:00;;;;;;;10.32;1.73;;;25.60;43.50;;;;;;5100169;28;20444;-71
2022/07/16 08:52:28;;;;;;;11.73;1.93;;;25.50;43.50;;;;;;5100593;28;20051;-70
2022/07/16 08:54:55;;;;;;;10.50;2.00;;;25.30;43.80;;;;;;5100225;28;20044;-70
2022/07/16 08:57:22;;;;;;;11.47;1.57;;;25.00;43.60;;;;;;5099113;28;20052;-70
2022/07/16 08:59:49;;;;;;;13.50;2.27;;;24.40;43.80;;;;;;5099987;28;20122;-71
2022/07/16 09:02:16;;;;;;;11.83;1.80;;;23.90;43.40;;;;;;5099848;28;20055;-76
2022/07/16 09:04:42;;;;;;;14.00;1.87;;;23.70;44.00;;;;;;5098258;28;20040;-80
2022/07/16 09:07:15;;;;;;;6.30;1.43;;;23.40;44.40;;;;;;5100545;28;20055;-81
2022/07/16 09:09:41;;;;;;;7.67;1.50;;;23.50;44.30;;;;;;5099884;28;20197;-81
2022/07/16 09:12:07;;;;;;;5.73;1.50;;;23.30;44.20;;;;;;5099952;28;20048;-78
2022/07/16 09:14:33;;;;;;;6.47;1.47;;;23.30;44.10;;;;;;5082151;28;20105;-85
2022/07/16 09:17:00;;;;;;;6.03;1.53;;;23.10;44.70;;;;;;5098887;28;20052;-79
2022/07/16 09:19:28;;;;;;;8.53;1.70;;;22.70;45.10;;;;;;5098843;28;20494;-75
2022/07/16 09:22:09;;;;;;;5.77;1.57;;;22.60;45.90;;;;;;5098856;28;20518;-76
2022/07/16 09:24:41;;;;;;;7.70;1.80;;;22.20;47.50;;;;;;5099815;28;20126;-79
2022/07/16 09:27:12;;;;;;;9.00;1.80;;;22.20;48.00;;;;;;5100500;28;20050;-77
2022/07/16 09:29:47;;;;;;;8.57;1.80;;;22.40;48.40;;;;;;5099408;28;20059;-78
2022/07/16 09:32:34;;;;;;;10.83;2.23;;;22.50;48.60;;;;;;5099600;28;20047;-76
2022/07/16 09:35:13;;;;;;;5.70;1.70;;;22.40;48.80;;;;;;5097800;28;20056;-76
2022/07/16 09:37:48;;;;;;;4.87;1.60;;;22.40;49.40;;;;;;5099750;28;20047;-75
2022/07/16 09:40:27;;;;;;;8.10;2.23;;;22.70;49.30;;;;;;5099385;28;20087;-72
2022/07/16 09:42:53;;;;;;;5.93;1.80;;;22.80;48.70;;;;;;5100250;28;20048;-77
2022/07/16 09:45:20;;;;;;;7.80;1.73;;;23.00;49.00;;;;;;5100136;28;20055;-75
2022/07/16 09:47:46;;;;;;;9.97;1.80;;;23.30;49.00;;;;;;5099702;28;20079;-79
2022/07/16 09:50:12;;;;;;;38.67;3.80;;;23.30;48.70;;;;;;5132620;27;20514;-80
2022/07/16 09:52:38;;;;;;;19.30;2.37;;;23.00;48.30;;;;;;5099968;28;20149;-80
2022/07/16 09:55:04;;;;;;;10.47;2.10;;;22.70;49.10;;;;;;5099428;28;20384;-79
2022/07/16 09:57:30;;;;;;;8.40;1.50;;;22.60;50.20;;;;;;5096006;28;20059;-77
2022/07/16 09:59:58;;;;;;;10.50;1.87;;;22.60;50.20;;;;;;5095133;28;20048;-79
2022/07/16 10:02:24;;;;;;;13.87;2.33;;;22.60;50.20;;;;;;5096121;28;20052;-79
2022/07/16 10:04:51;;;;;;;13.17;2.07;;;22.40;50.90;;;;;;5094749;28;20040;-77
2022/07/16 10:07:17;;;;;;;7.27;1.70;;;22.40;51.50;;;;;;5096183;28;20040;-78
2022/07/16 10:09:43;;;;;;;6.53;1.83;;;22.40;52.10;;;;;;5095443;28;20044;-79
2022/07/16 10:12:14;;;;;;;7.03;1.90;;;22.40;52.40;;;;;;5095963;28;20044;-80
2022/07/16 10:14:45;;;;;;;8.27;1.80;;;22.10;52.70;;;;;;5096175;28;20032;-77
2022/07/16 10:17:13;;;;;;;7.20;1.90;;;22.30;53.80;;;;;;5095666;28;20040;-71
2022/07/16 10:19:39;;;;;;;6.07;1.50;;;22.00;52.70;;;;;;5094485;28;20082;-80
2022/07/16 10:22:26;;;;;;;6.60;1.70;;;21.80;53.00;;;;;;5095716;28;20131;-72
2022/07/16 10:24:54;;;;;;;6.93;1.60;;;21.80;54.60;;;;;;5077835;28;20052;-72
2022/07/16 10:27:30;;;;;;;8.63;1.90;;;21.80;53.30;;;;;;5095705;28;20048;-71
2022/07/16 10:30:16;;;;;;;4.63;1.40;;;21.80;53.40;;;;;;5095772;28;20054;-72
2022/07/16 10:33:02;;;;;;;8.93;1.90;;;21.80;54.70;;;;;;5095729;28;20166;-69
2022/07/16 10:35:33;;;;;;;9.47;1.60;;;21.70;53.20;;;;;;5095993;28;20051;-70
2022/07/16 10:38:05;;;;;;;5.97;1.70;;;21.80;53.10;;;;;;5096277;28;20040;-71
2022/07/16 10:40:31;;;;;;;4.67;1.30;;;21.90;53.20;;;;;;5077238;28;20075;-70
2022/07/16 10:43:21;;;;;;;6.67;1.83;;;21.70;53.10;;;;;;5095222;28;20491;-74
2022/07/16 10:45:54;;;;;;;5.87;2.03;;;21.90;53.50;;;;;;5094423;28;20480;-71
2022/07/16 10:48:25;;;;;;;6.07;1.67;;;21.90;53.40;;;;;;5095828;28;20046;-71
2022/07/16 10:51:12;;;;;;;5.07;1.60;;;22.00;53.10;;;;;;5095636;28;20036;-72
2022/07/16 10:54:02;;;;;;;5.93;2.10;;;22.00;52.50;;;;;;5095889;28;20040;-71
2022/07/16 10:56:38;;;;;;;5.43;1.80;;;22.00;52.90;;;;;;5095254;28;20044;-71
2022/07/16 10:59:05;;;;;;;10.00;1.87;;;22.00;52.00;;;;;;5095960;28;20047;-73
2022/07/16 11:01:31;;;;;;;8.90;1.80;;;22.00;52.30;;;;;;5093855;28;20052;-71
2022/07/16 11:03:57;;;;;;;5.70;1.67;;;22.00;52.00;;;;;;5095656;28;20044;-80
2022/07/16 11:06:23;;;;;;;6.73;1.90;;;22.00;51.60;;;;;;5094646;28;20127;-78
2022/07/16 11:08:53;;;;;;;6.63;1.40;;;21.90;51.20;;;;;;5094208;28;20084;-81
2022/07/16 11:11:19;;;;;;;5.03;1.50;;;21.90;50.70;;;;;;5094987;28;20051;-76
2022/07/16 11:13:47;;;;;;;7.73;1.93;;;21.80;51.00;;;;;;5094600;28;20058;-79
2022/07/16 11:16:12;;;;;;;7.00;1.87;;;21.90;50.80;;;;;;5093845;28;20078;-76
2022/07/16 11:18:39;;;;;;;5.60;2.03;;;21.90;49.80;;;;;;5093766;28;20056;-77
2022/07/16 11:21:07;;;;;;;4.90;1.37;;;21.80;49.60;;;;;;5095009;28;20047;-78
2022/07/16 11:23:50;;;;;;;4.30;1.30;;;21.80;49.70;;;;;;5094392;28;20048;-72
2022/07/16 11:26:16;;;;;;;7.50;1.60;;;21.80;50.10;;;;;;5094499;28;20043;-71
2022/07/16 11:29:00;;;;;;;7.73;1.70;;;21.60;49.30;;;;;;5094529;28;20044;-72
2022/07/16 11:31:31;;;;;;;5.30;1.57;;;21.60;50.40;;;;;;5095229;28;20051;-74
2022/07/16 11:34:02;;;;;;;6.10;1.90;;;21.70;50.50;;;;;;5094655;28;20042;-82
2022/07/16 11:36:39;;;;;;;8.00;1.60;;;21.80;50.30;;;;;;5094503;28;20044;-82
2022/07/16 11:39:16;;;;;;;6.20;1.97;;;21.80;50.00;;;;;;5094651;28;20503;-77
2022/07/16 11:41:47;;;;;;;5.40;1.93;;;21.80;49.80;;;;;;5094519;28;20107;-76
2022/07/16 11:44:17;;;;;;;5.30;1.60;;;21.90;49.40;;;;;;5094352;28;20533;-79
2022/07/16 11:46:47;;;;;;;10.87;1.93;;;22.00;49.80;;;;;;5093251;28;20122;-77
2022/07/16 11:49:21;;;;;;;6.97;1.97;;;22.10;49.70;;;;;;5093247;28;20048;-81
2022/07/16 11:51:47;;;;;;;6.40;2.15;;;22.00;50.50;;;;;;5096414;28;20048;-92
2022/07/16 11:54:13;;;;;;;7.53;2.00;;;22.00;51.00;;;;;;5096542;28;20036;-82
2022/07/16 11:56:41;;;;;;;10.43;1.77;;;22.00;51.80;;;;;;5094043;28;20472;-78
2022/07/16 11:59:17;;;;;;;7.70;2.33;;;22.10;51.80;;;;;;5076139;28;20130;-72
2022/07/16 12:01:43;;;;;;;9.50;2.60;;;22.10;52.00;;;;;;5093919;28;20048;-73
2022/07/16 12:04:09;;;;;;;7.97;2.10;;;22.00;52.20;;;;;;5075909;28;20521;-73
2022/07/16 12:06:36;;;;;;;6.30;1.70;;;22.10;52.30;;;;;;5093956;28;20062;-73
2022/07/16 12:09:02;;;;;;;7.03;1.87;;;22.10;52.70;;;;;;5092822;28;20057;-73
2022/07/16 12:11:32;;;;;;;10.33;1.97;;;22.20;53.00;;;;;;5093785;28;20055;-73
2022/07/16 12:13:59;;;;;;;7.93;2.10;;;22.10;53.40;;;;;;5093700;28;20079;-74
2022/07/16 12:16:26;;;;;;;11.33;2.20;;;22.10;53.50;;;;;;5092883;28;20074;-73
2022/07/16 12:19:09;;;;;;;7.87;1.90;;;21.90;53.50;;;;;;5093811;28;20127;-74
2022/07/16 12:21:38;;;;;;;8.60;2.07;;;21.80;53.40;;;;;;5092656;28;20062;-76
2022/07/16 12:24:05;;;;;;;9.17;2.33;;;21.80;53.20;;;;;;5075695;28;20071;-73
2022/07/16 12:26:37;;;;;;;6.57;1.90;;;21.70;53.40;;;;;;5093718;28;20051;-73
2022/07/16 12:29:05;;;;;;;6.23;2.10;;;21.80;53.50;;;;;;5093783;28;20472;-76
2022/07/16 12:31:32;;;;;;;7.07;1.67;;;21.80;53.40;;;;;;5092445;28;20048;-76
2022/07/16 12:34:02;;;;;;;6.40;1.80;;;21.80;53.20;;;;;;5092646;28;20131;-72
2022/07/16 12:36:34;;;;;;;5.97;1.90;;;21.80;53.50;;;;;;5094433;28;20052;-77
2022/07/16 12:39:02;;;;;;;9.03;2.17;;;21.70;52.50;;;;;;5094289;28;20119;-74
2022/07/16 12:41:43;;;;;;;8.23;2.00;;;21.60;52.90;;;;;;5093884;28;20400;-77
2022/07/16 12:44:11;;;;;;;8.23;1.90;;;21.70;52.80;;;;;;5094385;28;20044;-80
2022/07/16 12:46:41;;;;;;;8.87;2.10;;;21.70;53.40;;;;;;5093837;28;20098;-74
2022/07/16 12:49:22;;;;;;;7.63;1.73;;;21.80;53.60;;;;;;5093411;28;20086;-76
2022/07/16 12:51:51;;;;;;;9.23;1.73;;;21.80;53.10;;;;;;5076505;28;20083;-74
2022/07/16 12:54:19;;;;;;;5.43;2.07;;;21.80;52.90;;;;;;5093403;28;20044;-72
2022/07/16 12:59:31;;;;;;;5.93;1.65;;;21.60;52.80;;;;;;5092747;28;20091;-73
2022/07/16 13:01:57;;;;;;;7.57;1.70;;;21.70;52.80;;;;;;5093444;28;20043;-73